Adak Island, Alaska
Current Conditions -  °F | °C
As of 8:56 PM on Wednesday 22 Oct 2014 (Local Time) from PADK Reporting Station
Overcast Overcast  
Wind Chill:   Ceiling: 3100
Heat Index:   Visibility: 9mi
Dew Point:   Wind: 20mph
Humidity: 76%   Direction: 230°SW
Pressure: 30.25"   Gusts: 24mph
Location:  51.88°N, 176.65°W
Report Text: PADK 230556Z AUTO 23017G21KT 9SM FEW014 SCT023 OVC031 07/03 A3025 RMK AO1 10090 20070 57010
Loading
Personal Weather Stations






























Interactive Weather Map
Tropical Storm Tracking
New forecast layout! Learn more

10-Day Weather Forecast

Advertisements
Track Severe Weather on mobile